createdAt,value
2018-04-02T00:01:41.735Z,99.90
2018-04-02T00:04:11.062Z,99.90
2018-04-02T00:06:39.492Z,99.90
2018-04-02T00:09:08.117Z,99.90
2018-04-02T00:11:36.508Z,99.90
2018-04-02T00:14:11.117Z,99.90
2018-04-02T00:16:39.513Z,99.90
2018-04-02T00:19:07.927Z,99.90
2018-04-02T00:21:36.314Z,99.90
2018-04-02T00:24:05.547Z,99.90
2018-04-02T00:26:34.130Z,99.90
2018-04-02T00:29:03.173Z,99.90
2018-04-02T00:31:30.967Z,99.90
2018-04-02T00:33:59.430Z,99.90
2018-04-02T00:36:34.023Z,99.90
2018-04-02T00:39:06.629Z,99.90
2018-04-02T00:41:35.020Z,99.90
2018-04-02T00:44:03.453Z,99.90
2018-04-02T00:46:31.887Z,99.90
2018-04-02T00:49:03.250Z,99.90
2018-04-02T00:51:31.641Z,99.90
2018-04-02T00:54:00.221Z,99.90
2018-04-02T00:56:28.627Z,99.90
2018-04-02T00:58:57.188Z,99.90
2018-04-02T01:01:31.073Z,99.90
2018-04-02T01:04:01.099Z,99.90
2018-04-02T01:06:30.732Z,99.90
2018-04-02T01:08:59.181Z,99.90
2018-04-02T01:11:27.688Z,99.90
2018-04-02T01:13:56.088Z,99.90
2018-04-02T01:16:24.465Z,99.90
2018-04-02T01:18:52.909Z,99.90
2018-04-02T01:21:21.469Z,99.90
2018-04-02T01:23:49.934Z,99.90
2018-04-02T01:26:22.176Z,99.90
2018-04-02T01:28:50.704Z,99.90
2018-04-02T01:31:19.276Z,99.90
2018-04-02T01:33:47.792Z,99.90
2018-04-02T01:36:16.216Z,99.80
2018-04-02T01:38:45.604Z,99.70
2018-04-02T01:41:14.964Z,99.70
2018-04-02T01:43:44.212Z,99.90
2018-04-02T01:46:12.693Z,99.90
2018-04-02T01:48:47.788Z,99.90
2018-04-02T01:51:21.746Z,99.90
2018-04-02T01:53:52.664Z,99.90
2018-04-02T01:56:21.096Z,99.90
2018-04-02T01:58:49.481Z,99.90
2018-04-02T02:01:17.868Z,99.90
2018-04-02T02:03:47.069Z,99.90
2018-04-02T02:06:16.309Z,99.90
2018-04-02T02:08:44.723Z,99.90
2018-04-02T02:11:13.133Z,99.90
2018-04-02T02:13:41.539Z,99.90
2018-04-02T02:16:12.105Z,99.90
2018-04-02T02:18:40.527Z,99.90
2018-04-02T02:21:09.660Z,99.90
2018-04-02T02:23:38.860Z,99.90
2018-04-02T02:26:07.283Z,99.90
2018-04-02T02:28:36.470Z,99.90
2018-04-02T02:31:04.867Z,99.90
2018-04-02T02:33:33.318Z,99.90
2018-04-02T02:36:01.770Z,99.90
2018-04-02T02:38:34.327Z,99.90
2018-04-02T02:41:02.717Z,99.90
2018-04-02T02:43:31.304Z,99.90
2018-04-02T02:45:59.706Z,99.90
2018-04-02T02:48:28.168Z,99.90
2018-04-02T02:50:56.689Z,99.90
2018-04-02T02:53:25.104Z,99.90
2018-04-02T02:55:53.492Z,99.90
2018-04-02T02:58:21.926Z,99.90
2018-04-02T03:00:53.249Z,99.90
2018-04-02T03:03:21.827Z,99.90
2018-04-02T03:05:50.219Z,99.90
2018-04-02T03:08:19.442Z,99.90
2018-04-02T03:10:48.010Z,99.90
2018-04-02T03:13:16.401Z,99.90
2018-04-02T03:15:44.861Z,99.90
2018-04-02T03:18:13.236Z,99.90
2018-04-02T03:20:41.619Z,99.90
2018-04-02T03:23:11.582Z,99.90
2018-04-02T03:25:48.541Z,99.90
2018-04-02T03:28:16.908Z,99.90
2018-04-02T03:30:45.482Z,99.90
2018-04-02T03:33:14.084Z,99.90
2018-04-02T03:35:42.655Z,99.90
2018-04-02T03:38:12.004Z,99.90
2018-04-02T03:40:40.585Z,99.90
2018-04-02T03:43:09.359Z,99.90
2018-04-02T03:45:38.240Z,99.90
2018-04-02T03:48:06.815Z,99.90
2018-04-02T03:50:35.261Z,99.90
2018-04-02T03:53:16.125Z,99.90
2018-04-02T03:55:44.523Z,99.90
2018-04-02T03:58:12.955Z,99.90
2018-04-02T04:00:41.400Z,99.90
2018-04-02T04:03:09.775Z,99.90
2018-04-02T04:05:38.158Z,99.90
2018-04-02T04:08:06.755Z,99.90
2018-04-02T04:10:35.158Z,99.90
2018-04-02T04:13:05.877Z,99.90
2018-04-02T04:15:34.252Z,99.90
2018-04-02T04:18:02.662Z,99.90
2018-04-02T04:20:33.029Z,99.90
2018-04-02T04:23:01.405Z,99.90
2018-04-02T04:25:29.796Z,99.90
2018-04-02T04:28:02.834Z,99.90
2018-04-02T04:30:32.053Z,99.90
2018-04-02T04:33:00.460Z,99.90
2018-04-02T04:35:28.865Z,99.90
2018-04-02T04:37:58.207Z,99.90
2018-04-02T04:40:26.658Z,99.90
2018-04-02T04:42:55.759Z,99.90
2018-04-02T04:45:24.992Z,99.90
2018-04-02T04:47:53.400Z,99.90
2018-04-02T04:50:25.236Z,99.90
2018-04-02T04:52:53.676Z,99.90
2018-04-02T04:55:22.098Z,99.90
2018-04-02T04:57:50.494Z,99.90
2018-04-02T05:00:18.932Z,99.90
2018-04-02T05:02:47.492Z,99.90
2018-04-02T05:05:16.108Z,99.90
2018-04-02T05:07:44.495Z,99.90
2018-04-02T05:10:13.672Z,99.90
2018-04-02T05:12:44.490Z,99.90
2018-04-02T05:15:13.674Z,99.90
2018-04-02T05:17:42.872Z,99.90
2018-04-02T05:20:11.292Z,99.90
2018-04-02T05:22:40.475Z,99.90
2018-04-02T05:25:09.041Z,99.90
2018-04-02T05:27:37.444Z,99.90
2018-04-02T05:30:05.846Z,99.90
2018-04-02T05:32:34.250Z,99.90
2018-04-02T05:35:06.014Z,99.90
2018-04-02T05:37:34.453Z,99.20
2018-04-02T05:40:02.861Z,99.00
2018-04-02T05:42:32.197Z,98.70
2018-04-02T05:45:00.819Z,97.20
2018-04-02T05:47:29.199Z,95.80
2018-04-02T05:49:57.572Z,94.30
2018-04-02T05:52:25.970Z,93.00
2018-04-02T05:54:54.537Z,91.90
2018-04-02T05:57:28.485Z,89.90
2018-04-02T05:59:57.653Z,85.60
2018-04-02T06:02:26.064Z,85.00
2018-04-02T06:04:54.619Z,81.10
2018-04-02T06:07:23.063Z,76.80
2018-04-02T06:09:52.293Z,72.00
2018-04-02T06:12:20.700Z,72.00
2018-04-02T06:14:49.135Z,70.20
2018-04-02T06:17:17.546Z,69.70
2018-04-02T06:19:48.385Z,71.40
2018-04-02T06:22:16.750Z,74.50
2018-04-02T06:24:45.394Z,75.70
2018-04-02T06:27:15.001Z,76.10
2018-04-02T06:29:43.636Z,76.10
2018-04-02T06:32:12.029Z,73.20
2018-04-02T06:34:41.235Z,69.60
2018-04-02T06:37:09.754Z,69.50
2018-04-02T06:39:38.876Z,56.10
2018-04-02T06:42:12.748Z,56.00
2018-04-02T06:44:41.321Z,58.90
2018-04-02T06:47:09.892Z,56.80
2018-04-02T06:49:38.310Z,52.80
2018-04-02T06:52:06.710Z,51.90
2018-04-02T06:54:47.476Z,46.20
2018-04-02T06:57:15.917Z,46.20
2018-04-02T06:59:46.716Z,40.30
2018-04-02T07:02:17.277Z,39.50
2018-04-02T07:04:45.863Z,39.50
2018-04-02T07:07:15.023Z,37.40
2018-04-02T07:09:43.434Z,37.50
2018-04-02T07:12:12.631Z,35.70
2018-04-02T07:14:41.237Z,35.50
2018-04-02T07:17:09.647Z,35.20
2018-04-02T07:19:38.965Z,34.70
2018-04-02T07:22:08.304Z,34.20
2018-04-02T07:24:36.709Z,32.80
2018-04-02T07:27:05.287Z,32.50
2018-04-02T07:29:35.814Z,31.80
2018-04-02T07:32:04.213Z,30.90
2018-04-02T07:34:32.801Z,30.30
2018-04-02T07:37:01.224Z,30.90
2018-04-02T07:39:29.662Z,30.90
2018-04-02T07:41:58.262Z,30.60
2018-04-02T07:44:29.113Z,30.60
2018-04-02T07:47:01.658Z,29.10
2018-04-02T07:49:30.269Z,29.10
2018-04-02T07:51:58.809Z,29.80
2018-04-02T07:54:27.186Z,30.20
2018-04-02T07:56:55.585Z,28.80
2018-04-02T07:59:24.037Z,29.00
2018-04-02T08:01:52.443Z,28.40
2018-04-02T08:04:20.906Z,28.00
2018-04-02T08:06:50.237Z,27.40
2018-04-02T08:09:22.966Z,27.80
2018-04-02T08:11:51.376Z,27.60
2018-04-02T08:14:20.543Z,27.90
2018-04-02T08:16:49.725Z,26.60
2018-04-02T08:19:18.331Z,26.50
2018-04-02T08:21:46.758Z,27.30
2018-04-02T08:24:15.161Z,26.30
2018-04-02T08:26:44.345Z,26.60
2018-04-02T08:29:13.167Z,26.50
2018-04-02T08:31:43.096Z,26.60
2018-04-02T08:34:11.651Z,26.00
2018-04-02T08:36:44.652Z,25.60
2018-04-02T08:39:13.254Z,25.60
2018-04-02T08:41:41.630Z,25.50
2018-04-02T08:44:10.266Z,25.80
2018-04-02T08:46:39.417Z,26.40
2018-04-02T08:49:08.001Z,26.70
2018-04-02T08:51:36.420Z,26.80
2018-04-02T08:54:10.400Z,26.30
2018-04-02T08:56:39.924Z,27.00
2018-04-02T08:59:08.313Z,26.90
2018-04-02T09:01:36.726Z,27.50
2018-04-02T09:04:05.244Z,25.70
2018-04-02T09:06:33.756Z,26.40
2018-04-02T09:09:02.137Z,26.00
2018-04-02T09:11:35.371Z,25.00
2018-04-02T09:14:03.831Z,24.60
2018-04-02T09:16:37.711Z,26.00
2018-04-02T09:19:06.971Z,24.60
2018-04-02T09:21:35.355Z,24.50
2018-04-02T09:24:03.735Z,24.90
2018-04-02T09:26:32.122Z,24.10
2018-04-02T09:29:00.629Z,24.10
2018-04-02T09:31:29.049Z,24.80
2018-04-02T09:33:57.475Z,23.60
2018-04-02T09:36:25.874Z,24.40
2018-04-02T09:38:55.718Z,24.60
2018-04-02T09:41:25.034Z,25.00
2018-04-02T09:43:53.447Z,23.60
2018-04-02T09:46:21.892Z,22.70
2018-04-02T09:48:53.613Z,22.20
2018-04-02T09:51:21.997Z,22.10
2018-04-02T09:53:51.101Z,22.20
2018-04-02T09:56:19.568Z,21.70
2018-04-02T09:58:47.984Z,20.80
2018-04-02T10:01:20.887Z,22.10
2018-04-02T10:03:54.973Z,23.30
2018-04-02T10:06:24.178Z,23.40
2018-04-02T10:08:52.589Z,23.20
2018-04-02T10:11:21.003Z,24.10
2018-04-02T10:13:49.421Z,25.30
2018-04-02T10:16:21.367Z,25.50
2018-04-02T10:18:49.833Z,25.40
2018-04-02T10:21:18.212Z,26.10
2018-04-02T10:23:46.650Z,25.80
2018-04-02T10:26:15.079Z,26.60
2018-04-02T10:28:43.697Z,25.90
2018-04-02T10:31:12.152Z,25.10
2018-04-02T10:33:40.545Z,26.50
2018-04-02T10:36:08.941Z,26.10
2018-04-02T10:38:37.393Z,25.30
2018-04-02T10:43:35.017Z,27.70
2018-04-02T10:46:03.438Z,27.00
2018-04-02T10:48:32.058Z,29.10
2018-04-02T10:51:00.447Z,27.70
2018-04-02T10:53:29.610Z,27.80
2018-04-02T10:55:58.022Z,27.70
2018-04-02T10:58:26.480Z,26.90
2018-04-02T11:00:55.681Z,28.60
2018-04-02T11:03:24.086Z,28.60
2018-04-02T11:05:53.274Z,27.40
2018-04-02T11:08:26.845Z,27.10
2018-04-02T11:10:55.280Z,27.10
2018-04-02T11:13:23.689Z,24.80
2018-04-02T11:15:52.099Z,25.40
2018-04-02T11:18:20.693Z,25.10
2018-04-02T11:20:49.179Z,26.40
2018-04-02T11:23:18.489Z,25.90
2018-04-02T11:25:47.097Z,25.90
2018-04-02T11:28:15.549Z,26.10
2018-04-02T11:30:46.554Z,26.40
2018-04-02T11:33:15.920Z,24.50
2018-04-02T11:35:45.096Z,28.40
2018-04-02T11:38:13.517Z,28.40
2018-04-02T11:40:41.897Z,27.30
2018-04-02T11:43:10.460Z,28.20
2018-04-02T11:45:39.046Z,28.60
2018-04-02T11:48:07.694Z,29.00
2018-04-02T11:50:36.243Z,28.30
2018-04-02T11:53:06.092Z,27.90
2018-04-02T11:55:35.156Z,28.50
2018-04-02T11:58:03.544Z,26.20
2018-04-02T12:00:31.953Z,27.90
2018-04-02T12:03:00.427Z,27.70
2018-04-02T12:05:29.589Z,27.20
2018-04-02T12:07:57.972Z,27.40
2018-04-02T12:10:26.369Z,27.90
2018-04-02T12:12:54.785Z,27.60
2018-04-02T12:15:28.580Z,27.00
2018-04-02T12:17:58.064Z,27.60
2018-04-02T12:20:27.550Z,26.00
2018-04-02T12:22:56.701Z,26.80
2018-04-02T12:25:25.111Z,26.90
2018-04-02T12:27:53.576Z,25.00
2018-04-02T12:30:21.947Z,24.30
2018-04-02T12:32:50.389Z,22.40
2018-04-02T12:35:18.785Z,25.00
2018-04-02T12:37:52.596Z,23.30
2018-04-02T12:40:20.996Z,24.30
2018-04-02T12:42:49.594Z,24.60
2018-04-02T12:45:18.200Z,23.90
2018-04-02T12:47:46.600Z,25.90
2018-04-02T12:50:15.771Z,25.90
2018-04-02T12:52:44.381Z,25.80
2018-04-02T12:55:12.809Z,27.50
2018-04-02T12:57:48.617Z,26.00
2018-04-02T13:00:22.569Z,26.80
2018-04-02T13:02:51.000Z,26.80
2018-04-02T13:05:19.591Z,26.80
2018-04-02T13:07:48.744Z,28.50
2018-04-02T13:10:17.901Z,27.80
2018-04-02T13:12:46.310Z,27.80
2018-04-02T13:15:18.291Z,27.90
2018-04-02T13:17:46.882Z,27.10
2018-04-02T13:20:16.115Z,27.10
2018-04-02T13:22:46.904Z,26.90
2018-04-02T13:25:15.293Z,25.30
2018-04-02T13:27:43.676Z,26.40
2018-04-02T13:30:12.074Z,26.00
2018-04-02T13:32:40.713Z,27.50
2018-04-02T13:35:09.260Z,26.30
2018-04-02T13:37:37.685Z,27.60
2018-04-02T13:40:06.280Z,26.90
2018-04-02T13:42:34.657Z,28.80
2018-04-02T13:45:08.497Z,28.20
2018-04-02T13:47:42.504Z,27.90
2018-04-02T13:50:11.072Z,29.70
2018-04-02T13:52:39.469Z,28.60
2018-04-02T13:55:07.988Z,31.30
2018-04-02T13:57:36.450Z,29.80
2018-04-02T14:00:04.850Z,31.50
2018-04-02T14:02:33.301Z,27.60
2018-04-02T14:05:01.705Z,29.90
2018-04-02T14:07:31.034Z,28.30
2018-04-02T14:10:04.857Z,28.30
2018-04-02T14:12:34.733Z,29.40
2018-04-02T14:15:03.439Z,31.80
2018-04-02T14:17:31.833Z,29.90
2018-04-02T14:20:00.331Z,31.30
2018-04-02T14:22:28.789Z,30.50
2018-04-02T14:24:57.292Z,29.80
2018-04-02T14:27:25.756Z,31.10
2018-04-02T14:29:54.244Z,31.80
2018-04-02T14:32:22.701Z,33.70
2018-04-02T14:34:56.564Z,32.00
2018-04-02T14:37:24.928Z,30.30
2018-04-02T14:39:53.364Z,31.40
2018-04-02T14:42:26.333Z,31.10
2018-04-02T14:44:54.710Z,30.20
2018-04-02T14:47:24.021Z,30.70
2018-04-02T14:49:53.285Z,29.60
2018-04-02T14:52:21.728Z,29.60
2018-04-02T14:54:50.368Z,31.90
2018-04-02T14:57:24.103Z,32.10
2018-04-02T14:59:52.693Z,32.60
2018-04-02T15:02:21.108Z,33.10
2018-04-02T15:04:50.309Z,30.10
2018-04-02T15:07:18.683Z,30.10
2018-04-02T15:09:47.269Z,32.10
2018-04-02T15:12:15.676Z,29.90
2018-04-02T15:14:44.322Z,30.60
2018-04-02T15:17:18.013Z,34.40
2018-04-02T15:19:47.401Z,34.20
2018-04-02T15:22:15.804Z,34.10
2018-04-02T15:24:44.196Z,33.20
2018-04-02T15:27:13.281Z,36.20
2018-04-02T15:29:42.616Z,35.10
2018-04-02T15:32:11.136Z,35.10
2018-04-02T15:34:40.284Z,34.90
2018-04-02T15:37:08.685Z,34.80
2018-04-02T15:39:37.457Z,34.20
2018-04-02T15:42:11.170Z,33.90
2018-04-02T15:44:39.625Z,33.90
2018-04-02T15:47:08.760Z,33.30
2018-04-02T15:49:37.246Z,33.30
2018-04-02T15:52:05.632Z,33.30
2018-04-02T15:54:34.006Z,34.90
2018-04-02T15:57:02.444Z,36.20
2018-04-02T15:59:30.821Z,34.50
2018-04-02T16:02:05.919Z,35.80
2018-04-02T16:04:40.126Z,36.10
2018-04-02T16:07:09.288Z,35.60
2018-04-02T16:09:37.851Z,35.60
2018-04-02T16:12:06.241Z,38.60
2018-04-02T16:14:34.697Z,37.80
2018-04-02T16:17:03.127Z,38.90
2018-04-02T16:19:31.501Z,36.10
2018-04-02T16:22:00.097Z,35.80
2018-04-02T16:24:28.500Z,38.10
2018-04-02T16:26:57.646Z,38.00
2018-04-02T16:29:31.613Z,37.90
2018-04-02T16:32:06.291Z,37.90
2018-04-02T16:34:34.705Z,36.10
2018-04-02T16:37:03.127Z,38.30
2018-04-02T16:39:31.501Z,37.60
2018-04-02T16:41:59.929Z,38.80
2018-04-02T16:44:28.289Z,39.80
2018-04-02T16:46:56.698Z,40.10
2018-04-02T16:49:25.096Z,40.50
2018-04-02T16:51:54.247Z,45.40
2018-04-02T16:54:22.691Z,45.20
2018-04-02T16:56:51.060Z,45.20
2018-04-02T16:59:20.241Z,47.20
2018-04-02T17:01:48.785Z,47.30
2018-04-02T17:04:18.618Z,49.60
2018-04-02T17:06:46.994Z,50.20
2018-04-02T17:09:16.139Z,48.80
2018-04-02T17:11:45.103Z,48.80
2018-04-02T17:14:14.484Z,52.50
2018-04-02T17:16:48.197Z,52.60
2018-04-02T17:19:17.380Z,51.00
2018-04-02T17:21:46.549Z,52.20
2018-04-02T17:24:18.915Z,52.50
2018-04-02T17:26:47.343Z,52.50
2018-04-02T17:29:16.501Z,54.20
2018-04-02T17:31:44.920Z,54.20
2018-04-02T17:34:13.302Z,53.50
2018-04-02T17:36:41.815Z,52.30
2018-04-02T17:39:11.162Z,52.10
2018-04-02T17:41:39.619Z,53.30
2018-04-02T17:44:08.042Z,51.80
2018-04-02T17:46:36.417Z,52.20
2018-04-02T17:49:04.850Z,52.60
2018-04-02T17:51:34.002Z,53.10
2018-04-02T17:54:02.383Z,52.90
2018-04-02T17:56:38.144Z,52.60
2018-04-02T17:59:06.755Z,53.40
2018-04-02T18:01:35.139Z,53.40
2018-04-02T18:04:03.541Z,53.90
2018-04-02T18:06:33.148Z,55.40
2018-04-02T18:09:01.604Z,55.40
2018-04-02T18:11:30.035Z,55.30
2018-04-02T18:13:58.468Z,55.30
2018-04-02T18:16:26.929Z,56.20
2018-04-02T18:18:56.261Z,58.30
2018-04-02T18:21:29.200Z,57.70
2018-04-02T18:23:57.573Z,58.60
2018-04-02T18:26:25.942Z,59.60
2018-04-02T18:28:55.169Z,60.80
2018-04-02T18:31:23.536Z,60.80
2018-04-02T18:33:52.043Z,61.10
2018-04-02T18:36:20.614Z,60.90
2018-04-02T18:38:49.113Z,61.90
2018-04-02T18:41:17.521Z,63.40
2018-04-02T18:43:47.418Z,64.70
2018-04-02T18:46:16.169Z,66.50
2018-04-02T18:48:45.295Z,67.10
2018-04-02T18:51:14.459Z,69.70
2018-04-02T18:53:46.710Z,69.70
2018-04-02T18:56:15.950Z,71.10
2018-04-02T18:58:44.343Z,71.20
2018-04-02T19:01:12.917Z,71.70
2018-04-02T19:03:41.291Z,73.40
2018-04-02T19:06:11.230Z,74.00
2018-04-02T19:08:39.855Z,75.10
2018-04-02T19:11:08.249Z,76.80
2018-04-02T19:13:36.658Z,76.50
2018-04-02T19:16:05.926Z,77.00
2018-04-02T19:18:34.306Z,76.90
2018-04-02T19:21:02.720Z,77.10
2018-04-02T19:23:31.279Z,77.50
2018-04-02T19:25:59.656Z,77.10
2018-04-02T19:28:33.478Z,77.00
2018-04-02T19:31:07.361Z,76.80
2018-04-02T19:33:35.822Z,76.60
2018-04-02T19:36:05.177Z,76.30
2018-04-02T19:38:33.555Z,76.40
2018-04-02T19:41:01.963Z,75.80
2018-04-02T19:43:30.392Z,75.50
2018-04-02T19:45:58.832Z,76.00
2018-04-02T19:48:27.454Z,74.70
2018-04-02T19:50:56.907Z,74.10
2018-04-02T19:53:30.768Z,73.90
2018-04-02T19:55:59.982Z,72.90
2018-04-02T19:58:28.396Z,72.90
2018-04-02T20:00:56.992Z,72.50
2018-04-02T20:03:25.405Z,71.50
2018-04-02T20:05:53.836Z,70.30
2018-04-02T20:08:22.254Z,70.00
2018-04-02T20:10:51.417Z,69.70
2018-04-02T20:13:19.834Z,69.70
2018-04-02T20:15:48.393Z,69.60
2018-04-02T20:18:16.994Z,69.60
2018-04-02T20:20:46.313Z,68.60
2018-04-02T20:23:14.693Z,69.40
2018-04-02T20:25:43.278Z,73.00
2018-04-02T20:28:11.647Z,72.70
2018-04-02T20:30:40.261Z,73.50
2018-04-02T20:33:08.672Z,75.00
2018-04-02T20:35:37.113Z,75.10
2018-04-02T20:38:11.172Z,76.60
2018-04-02T20:40:39.727Z,78.10
2018-04-02T20:43:08.400Z,78.60
2018-04-02T20:45:37.016Z,80.80
2018-04-02T20:48:05.399Z,80.30
2018-04-02T20:50:33.797Z,79.40
2018-04-02T20:53:02.216Z,79.00
2018-04-02T20:55:30.594Z,80.70
2018-04-02T20:57:59.012Z,80.60
2018-04-02T21:00:28.998Z,81.70
2018-04-02T21:02:57.366Z,80.60
2018-04-02T21:05:25.798Z,81.40
2018-04-02T21:07:54.212Z,82.60
2018-04-02T21:10:22.773Z,82.80
2018-04-02T21:12:51.195Z,81.60
2018-04-02T21:15:20.755Z,81.80
2018-04-02T21:17:49.952Z,81.30
2018-04-02T21:20:18.519Z,81.30
2018-04-02T21:22:52.221Z,80.30
2018-04-02T21:25:20.617Z,80.30
2018-04-02T21:27:49.788Z,80.20
2018-04-02T21:30:19.150Z,80.20
2018-04-02T21:32:47.533Z,80.10
2018-04-02T21:35:16.143Z,78.10
2018-04-02T21:37:44.578Z,78.10
2018-04-02T21:40:12.985Z,78.20
2018-04-02T21:42:41.390Z,80.70
2018-04-02T21:45:15.181Z,81.90
2018-04-02T21:47:43.603Z,83.30
2018-04-02T21:50:12.285Z,85.00
2018-04-02T21:52:40.670Z,85.10
2018-04-02T21:55:10.003Z,86.40
2018-04-02T21:57:38.490Z,86.40
2018-04-02T22:00:07.801Z,86.50
2018-04-02T22:02:38.391Z,86.40
2018-04-02T22:05:06.926Z,84.90
2018-04-02T22:07:36.622Z,86.20
2018-04-02T22:10:05.957Z,85.70
2018-04-02T22:12:34.525Z,85.70
2018-04-02T22:15:03.100Z,86.50
2018-04-02T22:17:31.480Z,86.50
2018-04-02T22:19:59.858Z,87.80
2018-04-02T22:22:29.021Z,86.00
2018-04-02T22:25:01.842Z,85.90
2018-04-02T22:27:31.020Z,82.80
2018-04-02T22:30:01.663Z,82.80
2018-04-02T22:32:30.842Z,83.10
2018-04-02T22:35:00.102Z,83.00
2018-04-02T22:37:34.422Z,82.60
2018-04-02T22:40:03.187Z,83.90
2018-04-02T22:42:32.725Z,84.80
2018-04-02T22:45:01.135Z,84.80
2018-04-02T22:47:29.737Z,86.40
2018-04-02T22:49:58.258Z,86.40
2018-04-02T22:52:30.898Z,86.60
2018-04-02T22:54:59.311Z,86.00
2018-04-02T22:57:27.702Z,85.50
2018-04-02T22:59:59.812Z,85.90
2018-04-02T23:02:28.233Z,86.90
2018-04-02T23:04:56.628Z,87.50
2018-04-02T23:07:25.035Z,89.30
2018-04-02T23:09:53.589Z,90.00
2018-04-02T23:12:22.124Z,89.20
2018-04-02T23:14:55.814Z,89.80
2018-04-02T23:17:24.193Z,89.30
2018-04-02T23:19:53.524Z,89.30
2018-04-02T23:22:33.906Z,89.00
2018-04-02T23:25:03.114Z,89.00
2018-04-02T23:27:31.537Z,88.90
2018-04-02T23:30:00.104Z,90.10
2018-04-02T23:32:28.495Z,89.80
2018-04-02T23:34:57.961Z,90.10
2018-04-02T23:37:26.374Z,90.10
2018-04-02T23:39:54.921Z,90.60
2018-04-02T23:42:23.328Z,90.50
2018-04-02T23:44:51.724Z,90.70
2018-04-02T23:47:20.893Z,91.10
2018-04-02T23:49:50.119Z,90.50
2018-04-02T23:52:18.492Z,90.50
2018-04-02T23:54:47.727Z,90.70
2018-04-02T23:57:18.008Z,90.90
2018-04-02T23:59:46.423Z,90.90
